Geneva, IL

8:42 PM CDT on July 06, 2015 (GMT -0500)
Dover Ridge | | Change Station
CLOSE
Current Station
Personal Weather Station
Location: Geneva, IL
Elevation: 745 ft
Nearby Weather Stations

Elev 745 ft 41.89 °N, 88.33 °W | Updated 1 second ago

Rain
Rain
71.5 °F
Feels Like 71.5 °F
N
6.9
Wind Variable Wind from SW
Gusts 6.9 mph

Today
High -- | Low -- °F
--% Chance of Precip.
Yesterday
High -- | Low -- °F
Precip. -- in
5:24 AM 8:31 PM
Waning Gibbous, 70% visible
Pressure 29.89 in
Visibility 2.0 miles
Clouds Few 900 ft
Few 2600 ft
Overcast 3600 ft
Dew Point 70 °F
Humidity 94%
Rainfall 0.89 in
Snow Depth Not available.
UV 0.0 out of 12
Pollen 4.00 out of 12
Air Quality Not available.
Flu Activity Not available.
SPECI KDPA 070138Z 24013KT 2SM VCTS +RA BR FEW009 FEW026 OVC036 22/21 A2989 RMK AO2 WSHFT 0112 VIS 1 1/2V3 LTG DSNT S AND SW TSB14E38 P0037 T02220211

More Conditions Fewer Conditions

Pressure 29.89 in
Visibility 2.0 miles
Clouds Few 900 ft
Few 2600 ft
Overcast 3600 ft
Dew Point 70 °F
Humidity 94%
Rainfall 0.89 in
Snow Depth Not available.
UV 0.0 out of 12
Pollen 4.00 out of 12
Air Quality Not available.
Flu Activity Not available.
SPECI KDPA 070138Z 24013KT 2SM VCTS +RA BR FEW009 FEW026 OVC036 22/21 A2989 RMK AO2 WSHFT 0112 VIS 1 1/2V3 LTG DSNT S AND SW TSB14E38 P0037 T02220211

More Conditions Fewer Conditions

10-Day Weather Forecast

×

Almanac

Astronomy

Jul. 06, 2015 Rise Set
Actual Time
Civil Twilight
Nautical Twilight
Astronomical Twilight
Moon
Length of Visible Light
Length of Day
Tomorrow will be .
, % of the Moon is Illuminated

Today's Extremes

State Highs State Lows

Community

WunderPhotos

Upload Photos

1,835,692 photos uploaded!

WunderBlogs® & News

Nearby

Air Quality

  Air Quality AQ Index Pollutant
Not available.

Snow Depth

Station Depth Elevation

Earthquake Activity

City Distance Mag. Time & Date
Minimum magnitude displayed is 2.5.

Coastal Water Temperatures

Place Temperature

Stations

Nearby Weather Stations

Station Location Temp. Windchill Dew Point Humidity Wind Precip. Elev Updated Type